createdAt,value
2022-07-28T00:04:58.217Z,15.50
2022-07-28T00:11:58.775Z,15.50
2022-07-28T00:18:59.243Z,15.60
2022-07-28T00:25:59.880Z,15.60
2022-07-28T00:33:00.609Z,15.60
2022-07-28T00:40:00.870Z,15.60
2022-07-28T00:47:01.347Z,15.60
2022-07-28T00:54:01.698Z,15.60
2022-07-28T01:01:03.956Z,15.70
2022-07-28T01:08:15.704Z,15.70
2022-07-28T01:15:35.169Z,15.70
2022-07-28T01:22:45.414Z,15.70
2022-07-28T01:30:07.972Z,15.70
2022-07-28T01:37:13.449Z,15.70
2022-07-28T01:44:18.759Z,15.70
2022-07-28T01:51:22.739Z,15.70
2022-07-28T01:58:25.675Z,15.70
2022-07-28T02:05:27.190Z,15.60
2022-07-28T02:12:28.439Z,15.60
2022-07-28T02:19:30.730Z,15.60
2022-07-28T02:26:36.514Z,15.60
2022-07-28T02:33:58.603Z,15.60
2022-07-28T02:41:03.262Z,15.50
2022-07-28T02:48:09.315Z,15.40
2022-07-28T02:55:12.300Z,15.30
2022-07-28T03:02:13.298Z,15.30
2022-07-28T03:09:13.990Z,15.20
2022-07-28T03:16:14.673Z,15.10
2022-07-28T03:23:16.339Z,15.00
2022-07-28T03:30:22.041Z,14.80
2022-07-28T03:37:34.122Z,14.70
2022-07-28T03:44:35.442Z,14.50
2022-07-28T03:51:36.279Z,14.40
2022-07-28T03:58:36.844Z,14.30
2022-07-28T04:05:37.789Z,14.30
2022-07-28T04:12:48.550Z,14.10
2022-07-28T04:19:50.894Z,14.00
2022-07-28T04:26:53.305Z,13.90
2022-07-28T04:33:53.696Z,13.90
2022-07-28T04:40:54.442Z,13.80
2022-07-28T04:47:55.264Z,13.70
2022-07-28T04:54:56.160Z,13.70
2022-07-28T05:01:58.059Z,13.70
2022-07-28T05:08:58.580Z,13.80
2022-07-28T05:15:59.105Z,13.80
2022-07-28T05:22:59.803Z,13.80
2022-07-28T05:29:59.837Z,13.90
2022-07-28T05:37:02.306Z,14.00
2022-07-28T05:44:03.608Z,14.20
2022-07-28T05:51:04.065Z,14.50
2022-07-28T05:58:05.132Z,14.80
2022-07-28T06:05:08.893Z,15.10
2022-07-28T06:12:09.701Z,15.40
2022-07-28T06:19:10.163Z,15.60
2022-07-28T06:26:10.726Z,15.70
2022-07-28T06:33:16.752Z,15.90
2022-07-28T06:40:19.875Z,16.00
2022-07-28T06:47:20.626Z,16.10
2022-07-28T06:54:20.737Z,16.30
2022-07-28T07:01:23.578Z,16.50
2022-07-28T07:08:24.492Z,16.80
2022-07-28T07:15:25.909Z,17.00
2022-07-28T07:22:26.262Z,17.20
2022-07-28T07:29:26.512Z,17.50
2022-07-28T07:36:31.932Z,17.90
2022-07-28T07:43:32.161Z,18.10
2022-07-28T07:50:33.010Z,18.40
2022-07-28T07:57:33.329Z,18.60
2022-07-28T08:04:37.399Z,18.80
2022-07-28T08:11:38.069Z,18.90
2022-07-28T08:18:38.352Z,19.00
2022-07-28T08:25:39.076Z,19.20
2022-07-28T08:32:41.580Z,19.60
2022-07-28T08:39:42.190Z,19.70
2022-07-28T08:46:44.231Z,19.80
2022-07-28T08:53:45.983Z,20.00
2022-07-28T09:00:47.040Z,20.20
2022-07-28T09:07:54.592Z,20.50
2022-07-28T09:14:55.267Z,20.70
2022-07-28T09:21:59.557Z,21.10
2022-07-28T09:29:01.739Z,21.30
2022-07-28T09:36:02.345Z,21.40
2022-07-28T09:43:03.040Z,21.50
2022-07-28T09:50:04.574Z,21.60
2022-07-28T09:57:09.868Z,21.60
2022-07-28T10:04:10.136Z,21.90
2022-07-28T10:11:11.772Z,22.10
2022-07-28T10:18:12.568Z,22.10
2022-07-28T10:25:13.592Z,22.20
2022-07-28T10:32:14.319Z,22.60
2022-07-28T10:39:19.597Z,22.80
2022-07-28T10:46:20.933Z,23.00
2022-07-28T10:53:50.498Z,23.10
2022-07-28T11:00:57.172Z,23.20
2022-07-28T11:08:03.823Z,23.40
2022-07-28T11:15:31.993Z,23.60
2022-07-28T11:22:34.187Z,23.80
2022-07-28T11:29:46.270Z,24.10
2022-07-28T11:37:14.911Z,24.50
2022-07-28T11:44:31.174Z,24.90
2022-07-28T11:51:31.640Z,25.10
2022-07-28T11:58:38.269Z,25.30
2022-07-28T12:05:42.074Z,25.30
2022-07-28T12:12:50.867Z,25.80
2022-07-28T12:19:51.190Z,26.20
2022-07-28T12:26:51.505Z,26.10
2022-07-28T12:33:54.801Z,26.30
2022-07-28T12:40:55.794Z,26.90
2022-07-28T12:47:56.123Z,27.30
2022-07-28T12:54:56.956Z,27.20
2022-07-28T13:01:58.362Z,27.30
2022-07-28T13:08:59.221Z,27.40
2022-07-28T13:16:20.851Z,27.40
2022-07-28T13:23:22.025Z,27.10
2022-07-28T13:30:23.302Z,27.20
2022-07-28T13:37:23.823Z,27.30
2022-07-28T13:44:24.330Z,27.40
2022-07-28T13:51:24.796Z,27.80
2022-07-28T13:58:25.569Z,28.10
2022-07-28T14:05:32.114Z,28.00
2022-07-28T14:12:32.884Z,27.70
2022-07-28T14:19:39.633Z,27.50
2022-07-28T14:26:40.627Z,27.30
2022-07-28T14:33:47.354Z,27.00
2022-07-28T14:40:50.707Z,27.10
2022-07-28T14:47:52.358Z,27.20
2022-07-28T14:54:53.061Z,27.00
2022-07-28T15:01:53.835Z,26.70
2022-07-28T15:08:55.941Z,26.50
2022-07-28T15:15:56.992Z,26.40
2022-07-28T15:22:57.762Z,26.40
2022-07-28T15:29:58.523Z,26.50
2022-07-28T15:37:03.097Z,26.30
2022-07-28T15:44:03.697Z,26.20
2022-07-28T15:51:04.558Z,26.10
2022-07-28T15:58:05.388Z,25.90
2022-07-28T16:05:06.469Z,25.80
2022-07-28T16:12:07.258Z,25.60
2022-07-28T16:19:38.703Z,25.50
2022-07-28T16:26:34.316Z,25.40
2022-07-28T16:33:35.275Z,25.30
2022-07-28T16:40:35.661Z,25.30
2022-07-28T16:47:36.469Z,25.00
2022-07-28T16:54:37.239Z,25.00
2022-07-28T17:01:40.871Z,25.00
2022-07-28T17:08:44.077Z,25.00
2022-07-28T17:15:44.834Z,24.80
2022-07-28T17:22:45.646Z,24.70
2022-07-28T17:29:46.494Z,24.70
2022-07-28T17:36:48.000Z,24.70
2022-07-28T17:43:48.653Z,24.60
2022-07-28T17:50:50.205Z,24.60
2022-07-28T17:57:50.455Z,24.50
2022-07-28T18:04:51.445Z,24.40
2022-07-28T18:11:56.641Z,24.30
2022-07-28T18:18:58.997Z,24.20
2022-07-28T18:25:59.331Z,24.10
2022-07-28T18:33:01.586Z,24.00
2022-07-28T18:40:02.176Z,23.90
2022-07-28T18:47:02.746Z,23.80
2022-07-28T18:54:03.139Z,23.60
2022-07-28T19:01:05.269Z,23.50
2022-07-28T19:08:13.860Z,23.40
2022-07-28T19:15:14.573Z,23.30
2022-07-28T19:22:15.351Z,23.20
2022-07-28T19:29:16.034Z,23.10
2022-07-28T19:36:16.695Z,23.00
2022-07-28T19:43:17.222Z,22.90
2022-07-28T19:50:18.294Z,22.80
2022-07-28T19:57:18.689Z,22.70
2022-07-28T20:04:19.467Z,22.60
2022-07-28T20:11:20.875Z,22.60
2022-07-28T20:18:21.642Z,22.50
2022-07-28T20:25:21.991Z,22.40
2022-07-28T20:32:22.834Z,22.30
2022-07-28T20:39:43.815Z,22.20
2022-07-28T20:46:44.181Z,22.10
2022-07-28T20:53:45.033Z,22.10
2022-07-28T21:00:45.698Z,22.00
2022-07-28T21:08:04.847Z,21.90
2022-07-28T21:15:09.015Z,21.80
2022-07-28T21:22:09.513Z,21.70
2022-07-28T21:36:18.669Z,21.60
2022-07-28T21:43:19.395Z,21.50
2022-07-28T21:50:19.984Z,21.40
2022-07-28T21:57:25.015Z,21.20
2022-07-28T22:04:25.810Z,21.20
2022-07-28T22:11:27.559Z,21.10
2022-07-28T22:18:27.975Z,21.10
2022-07-28T22:25:28.623Z,21.00
2022-07-28T22:32:29.510Z,20.90
2022-07-28T22:39:30.022Z,20.80
2022-07-28T22:46:30.534Z,20.80
2022-07-28T22:53:30.998Z,20.70
2022-07-28T23:00:31.592Z,20.60
2022-07-28T23:07:50.654Z,20.50
2022-07-28T23:14:52.230Z,20.50
2022-07-28T23:21:52.646Z,20.40
2022-07-28T23:28:53.358Z,20.40
2022-07-28T23:35:53.870Z,20.30
2022-07-28T23:42:54.343Z,20.20
2022-07-28T23:49:54.914Z,20.10
2022-07-28T23:56:57.197Z,20.00
